Time;durP1;ratioP1;P1;durP2;ratioP2;P2;SDS_P1;SDS_P2;PMS_P1;PMS_P2;Temp;Humidity;BMP_temperature;BMP_pressure;BME280_temperature;BME280_humidity;BME280_pressure;Samples;Min_cycle;Max_cycle;Signal;HPM_P1;HPM_P2
2022/04/26 03:37:17;;;;;;;;;;;;;;;7.19;57.43;101401.59;5045400;28;19919;-47
2022/04/26 03:39:42;;;;;;;;;;;;;;;7.21;57.37;101405.00;5042517;28;20062;-52
2022/04/26 03:42:08;;;;;;;;;;;;;;;7.24;57.21;101410.16;5045629;28;20011;-46
2022/04/26 03:44:33;;;;;;;;;;;;;;;7.26;57.47;101408.34;5044706;28;19923;-44
2022/04/26 03:46:59;;;;;;;;;;;;;;;7.30;57.52;101412.56;5043355;28;20011;-50
2022/04/26 03:49:24;;;;;;;;;;;;;;;7.32;57.22;101415.13;5044134;28;19928;-48
2022/04/26 03:51:53;;;;;;;;;;;;;;;7.36;57.28;101418.50;5046049;28;19950;-53
2022/04/26 03:54:19;;;;;;;;;;;;;;;7.38;57.22;101416.69;5042374;28;20033;-50
2022/04/26 03:56:44;;;;;;;;;;;;;;;7.39;57.29;101416.66;5041538;28;19954;-48
2022/04/26 03:59:10;;;;;;;;;;;;;;;7.41;57.11;101416.59;5044946;28;20007;-48
2022/04/26 04:01:35;;;;;;;;;;;;;;;7.43;57.32;101409.53;5039550;28;20365;-52
2022/04/26 04:04:00;;;;;;;;;;;;;;;7.44;57.45;101414.72;5043588;28;20462;-45
2022/04/26 04:06:26;;;;;;;;;;;;;;;7.46;57.02;101415.53;5045699;28;19913;-48
2022/04/26 04:08:51;;;;;;;;;;;;;;;7.48;57.18;101418.94;5040260;28;19916;-45
2022/04/26 04:11:16;;;;;;;;;;;;;;;7.50;56.97;101418.03;5046209;28;19935;-47
2022/04/26 04:13:41;;;;;;;;;;;;;;;7.52;57.09;101418.84;5043673;28;20021;-49
2022/04/26 04:16:07;;;;;;;;;;;;;;;7.53;57.37;101420.56;5047839;28;19913;-54
2022/04/26 04:21:16;;;;;;;;;;;;;;;7.54;57.20;101415.25;5041334;28;19923;-51
2022/04/26 04:23:41;;;;;;;;;;;;;;;7.53;57.31;101421.41;5041522;28;19920;-53
2022/04/26 04:26:09;;;;;;;;;;;;;;;7.55;57.28;101424.84;5044426;28;20338;-46
2022/04/26 04:28:35;;;;;;;;;;;;;;;7.59;57.37;101428.19;5036200;28;19932;-48
2022/04/26 04:31:01;;;;;;;;;;;;;;;7.62;57.19;101423.72;5038769;28;19920;-52
2022/04/26 04:33:27;;;;;;;;;;;;;;;7.66;57.15;101428.84;5040643;28;19943;-51
2022/04/26 04:35:52;;;;;;;;;;;;;;;7.71;57.25;101434.78;5043381;28;19916;-45
2022/04/26 04:38:17;;;;;;;;;;;;;;;7.72;56.96;101434.72;5040126;28;19917;-49
2022/04/26 04:40:43;;;;;;;;;;;;;;;7.76;57.07;101438.09;5041780;28;19947;-51
2022/04/26 04:43:08;;;;;;;;;;;;;;;7.80;57.31;101438.84;5047591;28;20379;-49
2022/04/26 04:45:33;;;;;;;;;;;;;;;7.82;57.27;101437.03;5047774;28;19924;-45
2022/04/26 04:47:59;;;;;;;;;;;;;;;7.85;57.40;101440.41;5042236;28;20003;-49
2022/04/26 04:50:24;;;;;;;;;;;;;;;7.89;57.25;101444.63;5045079;28;19923;-49
2022/04/26 04:52:50;;;;;;;;;;;;;;;7.91;57.27;101442.81;5042011;28;20016;-53
2022/04/26 04:55:15;;;;;;;;;;;;;;;7.96;57.41;101442.66;5032566;28;19921;-53
2022/04/26 04:57:40;;;;;;;;;;;;;;;7.97;57.08;101446.09;5037660;28;19931;-47
2022/04/26 05:00:06;;;;;;;;;;;;;;;7.97;57.06;101446.97;5045791;28;19970;-52
2022/04/26 05:02:31;;;;;;;;;;;;;;;7.97;57.17;101452.22;5046787;28;19923;-49
2022/04/26 05:04:57;;;;;;;;;;;;;;;7.99;57.19;101441.66;5049247;28;19920;-52
2022/04/26 05:07:23;;;;;;;;;;;;;;;8.01;57.25;101443.34;5046886;28;19999;-49
2022/04/26 05:09:50;;;;;;;;;;;;;;;8.04;57.46;101453.69;5047866;28;20020;-47
2022/04/26 05:12:16;;;;;;;;;;;;;;;8.04;57.55;101453.69;5048549;28;19955;-45
2022/04/26 05:14:42;;;;;;;;;;;;;;;8.06;57.40;101448.41;5047690;28;19916;-52
2022/04/26 05:17:07;;;;;;;;;;;;;;;8.06;57.26;101448.41;5047397;28;19917;-49
2022/04/26 05:19:32;;;;;;;;;;;;;;;8.08;57.39;101454.47;5048070;28;19948;-54
2022/04/26 05:21:58;;;;;;;;;;;;;;;8.09;57.58;101453.56;5045946;28;19909;-49
2022/04/26 05:27:07;;;;;;;;;;;;;;;8.16;57.38;101457.66;5048903;28;19923;-51
2022/04/26 05:29:32;;;;;;;;;;;;;;;8.20;57.80;101458.38;5048134;28;19912;-49
2022/04/26 05:31:58;;;;;;;;;;;;;;;8.23;57.64;101453.03;5048267;28;20007;-47
2022/04/26 05:34:23;;;;;;;;;;;;;;;8.27;57.81;101459.88;5047975;28;20027;-48
2022/04/26 05:36:48;;;;;;;;;;;;;;;8.32;57.70;101457.09;5048212;28;20330;-51
2022/04/26 05:39:13;;;;;;;;;;;;;;;8.36;57.46;101461.31;5047304;28;20043;-52
2022/04/26 05:41:39;;;;;;;;;;;;;;;8.37;57.78;101468.28;5048022;28;20079;-50
2022/04/26 05:44:04;;;;;;;;;;;;;;;8.36;57.66;101461.31;5048755;28;20265;-45
2022/04/26 05:46:29;;;;;;;;;;;;;;;8.35;57.88;101464.84;5046851;28;19920;-52
2022/04/26 05:48:55;;;;;;;;;;;;;;;8.35;58.24;101462.22;5048131;28;19925;-50
2022/04/26 05:51:22;;;;;;;;;;;;;;;8.37;58.05;101465.66;5048247;28;19919;-52
2022/04/26 05:53:48;;;;;;;;;;;;;;;8.39;57.99;101459.44;5044232;28;19970;-51
2022/04/26 05:56:15;;;;;;;;;;;;;;;8.45;58.15;101458.34;5048352;28;19917;-50
2022/04/26 05:58:40;;;;;;;;;;;;;;;8.48;58.23;101460.91;5054547;28;19920;-53
2022/04/26 06:01:06;;;;;;;;;;;;;;;8.51;57.98;101468.66;5056194;28;19912;-51
2022/04/26 06:03:33;;;;;;;;;;;;;;;8.56;57.98;101464.97;5055225;28;19912;-50
2022/04/26 06:05:59;;;;;;;;;;;;;;;8.62;58.03;101472.63;5054913;28;19917;-49
2022/04/26 06:08:24;;;;;;;;;;;;;;;8.65;58.16;101470.75;5053458;28;20406;-48
2022/04/26 06:10:49;;;;;;;;;;;;;;;8.71;57.86;101468.81;5054300;28;20004;-55
2022/04/26 06:13:15;;;;;;;;;;;;;;;8.75;57.96;101471.25;5054204;28;19927;-51
2022/04/26 06:15:40;;;;;;;;;;;;;;;8.78;58.08;101471.13;5054204;28;19909;-50
2022/04/26 06:18:05;;;;;;;;;;;;;;;8.80;58.13;101469.31;5053305;28;20343;-52
2022/04/26 06:20:31;;;;;;;;;;;;;;;8.83;57.86;101474.44;5056300;28;20335;-51
2022/04/26 06:22:56;;;;;;;;;;;;;;;8.84;58.07;101468.28;5054253;28;19921;-45
2022/04/26 06:25:21;;;;;;;;;;;;;;;8.85;58.23;101467.34;5054966;28;19947;-50
2022/04/26 06:27:47;;;;;;;;;;;;;;;8.87;58.07;101466.44;5053918;28;19943;-51
2022/04/26 06:30:13;;;;;;;;;;;;;;;8.88;58.32;101471.63;5055809;28;19948;-52
2022/04/26 06:32:38;;;;;;;;;;;;;;;8.90;58.20;101469.81;5052778;28;19963;-44
2022/04/26 06:35:04;;;;;;;;;;;;;;;8.93;58.41;101471.44;5054585;28;19923;-46
2022/04/26 06:37:29;;;;;;;;;;;;;;;8.91;58.25;101468.03;5053656;28;19921;-47
2022/04/26 06:39:55;;;;;;;;;;;;;;;8.91;58.29;101470.66;5054434;28;19916;-47
2022/04/26 06:42:20;;;;;;;;;;;;;;;8.93;58.21;101474.06;5053437;28;19970;-54
2022/04/26 06:44:46;;;;;;;;;;;;;;;8.90;58.21;101467.19;5054111;28;19924;-51
2022/04/26 06:47:11;;;;;;;;;;;;;;;8.90;58.09;101464.56;5052406;28;19916;-53
2022/04/26 06:49:36;;;;;;;;;;;;;;;8.93;58.25;101472.28;5055528;28;19967;-51
2022/04/26 06:52:02;;;;;;;;;;;;;;;9.00;57.99;101475.53;5054027;28;19951;-47
2022/04/26 06:54:27;;;;;;;;;;;;;;;9.06;57.98;101470.06;5054285;28;20011;-51
2022/04/26 06:56:52;;;;;;;;;;;;;;;9.10;58.02;101465.53;5054401;28;20766;-45
2022/04/26 06:59:18;;;;;;;;;;;;;;;9.09;57.43;101469.94;5054852;28;20311;-50
2022/04/26 07:01:44;;;;;;;;;;;;;;;9.10;57.34;101470.78;5054394;28;19912;-50
2022/04/26 07:04:10;;;;;;;;;;;;;;;9.14;57.51;101468.00;5054954;28;19970;-45
2022/04/26 07:06:35;;;;;;;;;;;;;;;9.22;57.37;101469.44;5053665;28;19909;-48
2022/04/26 07:09:03;;;;;;;;;;;;;;;9.30;57.11;101472.63;5051417;28;20007;-48
2022/04/26 07:11:28;;;;;;;;;;;;;;;9.38;57.01;101473.16;5051119;28;19912;-48
2022/04/26 07:13:53;;;;;;;;;;;;;;;9.43;56.80;101478.22;5052132;28;20299;-45
2022/04/26 07:16:19;;;;;;;;;;;;;;;9.50;56.71;101473.56;5050327;28;19948;-48
2022/04/26 07:18:45;;;;;;;;;;;;;;;9.56;56.54;101483.81;5050941;28;20283;-49
2022/04/26 07:21:10;;;;;;;;;;;;;;;9.64;56.26;101473.00;5049617;28;20356;-51
2022/04/26 07:23:35;;;;;;;;;;;;;;;9.71;56.10;101485.81;5051349;28;19917;-48
2022/04/26 07:26:01;;;;;;;;;;;;;;;9.79;56.02;101484.59;5049859;28;19917;-48
2022/04/26 07:28:26;;;;;;;;;;;;;;;9.85;55.83;101484.38;5051991;28;20339;-52
2022/04/26 07:30:52;;;;;;;;;;;;;;;9.90;55.77;101477.16;5050903;28;20294;-46
2022/04/26 07:36:03;;;;;;;;;;;;;;;10.03;55.51;101486.22;5050106;28;20426;-46
2022/04/26 07:38:28;;;;;;;;;;;;;;;10.09;55.43;101486.84;5050001;28;19917;-51
2022/04/26 07:40:53;;;;;;;;;;;;;;;10.15;55.12;101484.78;5049506;28;19921;-51
2022/04/26 07:43:19;;;;;;;;;;;;;;;10.23;55.01;101489.72;5050932;28;19909;-49
2022/04/26 07:45:45;;;;;;;;;;;;;;;10.28;55.04;101482.47;5049371;28;20014;-49
2022/04/26 07:48:11;;;;;;;;;;;;;;;10.35;54.83;101483.94;5050569;28;19917;-44
2022/04/26 07:50:37;;;;;;;;;;;;;;;10.43;54.92;101485.38;5050361;28;19969;-50
2022/04/26 07:53:03;;;;;;;;;;;;;;;10.49;54.62;101490.38;5042967;28;20390;-49
2022/04/26 07:55:29;;;;;;;;;;;;;;;10.53;54.39;101491.91;5048782;28;19917;-51
2022/04/26 07:57:54;;;;;;;;;;;;;;;10.57;54.27;101492.66;5048473;28;19939;-49
2022/04/26 08:00:20;;;;;;;;;;;;;;;10.60;53.83;101489.84;5049827;28;20059;-51
2022/04/26 08:02:45;;;;;;;;;;;;;;;10.64;53.73;101494.94;5050066;28;19924;-47
2022/04/26 08:05:12;;;;;;;;;;;;;;;10.71;53.58;101497.25;5050249;28;19917;-49
2022/04/26 08:07:39;;;;;;;;;;;;;;;10.75;53.20;101497.03;5049033;28;19917;-51
2022/04/26 08:10:09;;;;;;;;;;;;;;;10.81;53.05;101501.19;5050099;28;19916;-48
2022/04/26 08:12:34;;;;;;;;;;;;;;;10.84;52.98;101501.03;5049351;28;19991;-52
2022/04/26 08:14:59;;;;;;;;;;;;;;;10.89;53.08;101503.47;5049700;28;19913;-51
2022/04/26 08:17:25;;;;;;;;;;;;;;;10.94;52.71;101504.97;5050044;28;20378;-49
2022/04/26 08:19:50;;;;;;;;;;;;;;;10.98;52.64;101506.50;5049784;28;19955;-52
2022/04/26 08:22:15;;;;;;;;;;;;;;;11.02;52.69;101501.09;5048752;28;20777;-51
2022/04/26 08:27:25;;;;;;;;;;;;;;;11.08;52.51;101508.72;5048574;28;20614;-49
2022/04/26 08:29:52;;;;;;;;;;;;;;;11.10;52.30;101501.59;5047636;28;19923;-45
2022/04/26 08:32:17;;;;;;;;;;;;;;;11.16;52.40;101509.19;5049529;28;20007;-48
2022/04/26 08:34:43;;;;;;;;;;;;;;;11.20;52.05;101513.41;5049953;28;20073;-51
2022/04/26 08:37:11;;;;;;;;;;;;;;;11.24;52.08;101512.31;5049317;28;19928;-50
2022/04/26 08:39:36;;;;;;;;;;;;;;;11.30;51.99;101513.81;5049344;28;19913;-49
2022/04/26 08:42:02;;;;;;;;;;;;;;;11.33;51.67;101516.31;5049938;28;19918;-52
2022/04/26 08:44:29;;;;;;;;;;;;;;;11.39;51.51;101523.88;5048593;28;19909;-51
2022/04/26 08:52:22;;;;;;;;;;;;;;;11.46;51.34;101519.16;5050709;28;19975;-44
2022/04/26 08:54:49;;;;;;;;;;;;;;;11.50;51.21;101528.63;5048564;28;19924;-49
2022/04/26 08:57:15;;;;;;;;;;;;;;;11.53;51.12;101523.22;5048610;28;19916;-46
2022/04/26 08:59:47;;;;;;;;;;;;;;;11.55;50.96;101524.00;5048619;28;19915;-50
2022/04/26 09:02:19;;;;;;;;;;;;;;;11.61;50.88;101528.13;5047714;28;19908;-50
2022/04/26 09:04:45;;;;;;;;;;;;;;;11.62;50.83;101524.56;5048829;28;19920;-48
2022/04/26 09:07:12;;;;;;;;;;;;;;;11.68;50.74;101523.41;5047650;28;19916;-44
2022/04/26 09:09:38;;;;;;;;;;;;;;;11.72;50.82;101527.59;5047601;28;19912;-45
2022/04/26 09:12:09;;;;;;;;;;;;;;;11.76;50.76;101525.66;5048611;28;19954;-48
2022/04/26 09:14:50;;;;;;;;;;;;;;;11.78;50.65;101529.91;5045761;28;20011;-50
2022/04/26 09:17:18;;;;;;;;;;;;;;;11.79;50.43;101521.06;5048746;28;19924;-54
2022/04/26 09:19:47;;;;;;;;;;;;;;;11.82;50.31;101523.56;5047703;28;19927;-52
2022/04/26 09:22:19;;;;;;;;;;;;;;;11.85;50.24;101520.75;5048326;28;19915;-49
2022/04/26 09:24:58;;;;;;;;;;;;;;;11.89;50.26;101527.56;5047686;28;20320;-48
2022/04/26 09:27:24;;;;;;;;;;;;;;;11.96;50.02;101520.19;5046325;28;19917;-54
2022/04/26 09:29:49;;;;;;;;;;;;;;;12.00;49.68;101519.16;5048837;28;19909;-51
2022/04/26 09:32:15;;;;;;;;;;;;;;;12.04;49.42;101525.09;5041876;28;19932;-48
2022/04/26 09:34:41;;;;;;;;;;;;;;;12.08;49.50;101518.75;5048773;28;20364;-47
2022/04/26 09:37:07;;;;;;;;;;;;;;;12.10;49.18;101519.53;5046815;28;19913;-45
2022/04/26 09:39:32;;;;;;;;;;;;;;;12.11;49.28;101521.25;5048567;28;19912;-48
2022/04/26 09:41:57;;;;;;;;;;;;;;;12.12;49.28;101508.88;5048076;28;19920;-55
2022/04/26 09:44:32;;;;;;;;;;;;;;;12.14;49.17;101510.53;5049250;28;20805;-46
2022/04/26 09:46:58;;;;;;;;;;;;;;;12.18;49.06;101522.59;5046159;28;20008;-52
2022/04/26 09:49:24;;;;;;;;;;;;;;;12.24;49.01;101508.25;5048808;28;20320;-48
2022/04/26 09:51:59;;;;;;;;;;;;;;;12.30;48.83;101509.72;5048541;28;19912;-46
2022/04/26 09:54:29;;;;;;;;;;;;;;;12.36;48.69;101512.03;5048182;28;19916;-45
2022/04/26 09:56:54;;;;;;;;;;;;;;;12.41;48.56;101515.28;5046954;28;20281;-49
2022/04/26 09:59:29;;;;;;;;;;;;;;;12.47;48.34;101511.47;5029820;28;19935;-51
2022/04/26 10:01:56;;;;;;;;;;;;;;;12.53;48.31;101505.00;5047211;28;20000;-50
2022/04/26 10:04:22;;;;;;;;;;;;;;;12.55;48.05;101503.13;5048547;28;19921;-52
2022/04/26 10:06:56;;;;;;;;;;;;;;;12.57;47.80;101503.91;5047625;28;19947;-50
2022/04/26 10:09:22;;;;;;;;;;;;;;;12.64;47.73;101505.25;5047380;28;19936;-46
2022/04/26 10:11:48;;;;;;;;;;;;;;;12.67;47.33;101513.03;5048559;28;19935;-47
2022/04/26 10:14:13;;;;;;;;;;;;;;;12.69;47.64;101505.88;5047305;28;19917;-45
2022/04/26 10:16:39;;;;;;;;;;;;;;;12.73;47.44;101510.06;5048312;28;19925;-45
2022/04/26 10:19:08;;;;;;;;;;;;;;;12.78;46.98;101509.81;5048420;28;20000;-50
2022/04/26 10:21:38;;;;;;;;;;;;;;;12.81;46.58;101507.84;5048035;28;19919;-49
2022/04/26 10:24:09;;;;;;;;;;;;;;;12.82;46.35;101506.06;5044323;28;19987;-54
2022/04/26 10:26:35;;;;;;;;;;;;;;;12.86;46.52;101501.44;5047585;28;19943;-48
2022/04/26 10:29:10;;;;;;;;;;;;;;;12.90;46.45;101497.72;5046052;28;19909;-47
2022/04/26 10:31:47;;;;;;;;;;;;;;;12.96;46.26;101497.34;5048482;28;19918;-48
2022/04/26 10:34:29;;;;;;;;;;;;;;;13.06;46.13;101501.22;5041728;28;19970;-52
2022/04/26 10:36:59;;;;;;;;;;;;;;;13.14;45.50;101492.84;5048219;28;19919;-53
2022/04/26 10:39:30;;;;;;;;;;;;;;;13.22;45.58;101498.53;5047260;28;19917;-46
2022/04/26 10:41:56;;;;;;;;;;;;;;;13.30;45.23;101494.63;5048341;28;19913;-47
2022/04/26 10:44:22;;;;;;;;;;;;;;;13.32;45.26;101493.59;5049737;28;19917;-51
2022/04/26 10:46:50;;;;;;;;;;;;;;;13.37;44.97;101496.81;5050879;28;19912;-54
2022/04/26 10:49:24;;;;;;;;;;;;;;;13.41;45.02;101495.72;5050629;28;19924;-53
2022/04/26 10:51:53;;;;;;;;;;;;;;;13.49;44.83;101489.16;5050096;28;19915;-52
2022/04/26 10:54:37;;;;;;;;;;;;;;;13.53;44.88;101486.22;5052973;28;19919;-54
2022/04/26 10:57:02;;;;;;;;;;;;;;;13.58;44.64;101493.88;5049350;28;19958;-53
2022/04/26 10:59:27;;;;;;;;;;;;;;;13.62;44.61;101483.97;5051578;28;20007;-47
2022/04/26 11:01:54;;;;;;;;;;;;;;;13.68;44.63;101495.06;5051305;28;20034;-47
2022/04/26 11:04:20;;;;;;;;;;;;;;;13.76;44.27;101488.47;5050789;28;20287;-47
2022/04/26 11:06:45;;;;;;;;;;;;;;;13.83;44.05;101481.88;5050772;28;19917;-53
2022/04/26 11:09:12;;;;;;;;;;;;;;;13.89;43.87;101492.06;5051240;28;19917;-52
2022/04/26 11:11:47;;;;;;;;;;;;;;;13.95;43.61;101483.78;5049792;28;20367;-53
2022/04/26 11:14:12;;;;;;;;;;;;;;;14.02;43.71;101482.44;5050928;28;19920;-54
2022/04/26 11:16:52;;;;;;;;;;;;;;;14.10;43.58;101489.91;5050244;28;20410;-53
2022/04/26 11:19:24;;;;;;;;;;;;;;;14.18;43.45;101489.44;5050437;28;20360;-52
2022/04/26 11:21:50;;;;;;;;;;;;;;;14.23;43.12;101484.75;5050403;28;19909;-50
2022/04/26 11:29:52;;;;;;;;;;;;;;;14.50;42.22;101494.56;5050218;28;19920;-49
2022/04/26 11:32:48;;;;;;;;;;;;;;;14.60;42.39;101495.66;5050588;28;20952;-53
2022/04/26 11:35:14;;;;;;;;;;;;;;;14.68;42.09;101505.81;5040821;28;19936;-53
2022/04/26 11:37:46;;;;;;;;;;;;;;;14.73;42.26;101511.69;5051112;28;20098;-54
2022/04/26 11:40:20;;;;;;;;;;;;;;;14.78;42.29;101495.50;5049770;28;20011;-54
2022/04/26 11:42:46;;;;;;;;;;;;;;;14.85;42.26;101498.59;5050843;28;19952;-47
2022/04/26 11:45:11;;;;;;;;;;;;;;;14.93;42.34;101494.50;5050596;28;20034;-47
2022/04/26 11:47:44;;;;;;;;;;;;;;;15.00;42.26;101497.63;5047807;28;19917;-52
2022/04/26 11:50:14;;;;;;;;;;;;;;;15.08;42.22;101503.28;5050809;28;20292;-54
2022/04/26 11:52:39;;;;;;;;;;;;;;;15.16;42.23;101491.31;5050441;28;19920;-55
2022/04/26 11:55:05;;;;;;;;;;;;;;;15.23;42.16;101498.78;5049955;28;19913;-52
2022/04/26 11:57:31;;;;;;;;;;;;;;;15.32;41.98;101504.44;5050019;28;19917;-53
2022/04/26 11:59:57;;;;;;;;;;;;;;;15.36;41.88;101508.56;5048479;28;19913;-53
2022/04/26 12:02:22;;;;;;;;;;;;;;;15.39;41.82;101508.38;5049570;28;19917;-53
2022/04/26 12:04:48;;;;;;;;;;;;;;;15.42;41.74;101507.34;5049749;28;19943;-53
2022/04/26 12:07:14;;;;;;;;;;;;;;;15.45;41.69;101507.97;5048851;28;19912;-46
2022/04/26 12:09:41;;;;;;;;;;;;;;;15.48;41.59;101498.97;5048870;28;20394;-44
2022/04/26 12:12:10;;;;;;;;;;;;;;;15.50;41.54;101497.91;5051254;28;19914;-48
2022/04/26 12:14:38;;;;;;;;;;;;;;;15.57;41.23;101494.84;5051849;28;19917;-49
2022/04/26 12:17:03;;;;;;;;;;;;;;;15.64;40.92;101490.84;5052845;28;19912;-49
2022/04/26 12:19:36;;;;;;;;;;;;;;;15.70;41.01;101493.06;5049683;28;19963;-50
2022/04/26 12:22:02;;;;;;;;;;;;;;;15.78;40.52;101496.06;5046529;28;19967;-55
2022/04/26 12:24:29;;;;;;;;;;;;;;;15.87;40.57;101493.75;5048329;28;19944;-47
2022/04/26 12:26:57;;;;;;;;;;;;;;;15.94;40.20;101489.75;5049040;28;19909;-46
2022/04/26 12:29:23;;;;;;;;;;;;;;;15.99;40.05;101495.56;5048661;28;20343;-47
2022/04/26 12:31:49;;;;;;;;;;;;;;;16.06;39.84;101482.72;5049422;28;19958;-51
2022/04/26 12:34:19;;;;;;;;;;;;;;;16.15;39.50;101493.53;5049107;28;20310;-51
2022/04/26 12:36:51;;;;;;;;;;;;;;;16.21;39.43;101486.97;5050129;28;19919;-52
2022/04/26 12:39:25;;;;;;;;;;;;;;;16.25;39.05;101482.31;5049592;28;20232;-52
2022/04/26 12:41:51;;;;;;;;;;;;;;;16.31;38.45;101487.16;5048920;28;19972;-53
2022/04/26 12:44:17;;;;;;;;;;;;;;;16.33;38.54;101479.94;5050306;28;19912;-49
2022/04/26 12:46:45;;;;;;;;;;;;;;;16.38;38.78;101480.47;5048251;28;20012;-53
2022/04/26 12:51:55;;;;;;;;;;;;;;;16.54;38.58;101471.41;5049150;28;19927;-53
2022/04/26 12:54:20;;;;;;;;;;;;;;;16.64;38.48;101477.75;5049051;28;19920;-53
2022/04/26 12:56:59;;;;;;;;;;;;;;;16.69;38.23;101470.31;5048320;28;20004;-51
2022/04/26 12:59:32;;;;;;;;;;;;;;;16.76;38.06;101466.25;5047962;28;20368;-54
2022/04/26 13:01:58;;;;;;;;;;;;;;;16.81;37.87;101470.38;5048640;28;19908;-52
2022/04/26 13:04:23;;;;;;;;;;;;;;;16.85;37.71;101472.69;5049585;28;19928;-49
2022/04/26 13:06:48;;;;;;;;;;;;;;;16.92;37.82;101465.13;5048166;28;20000;-46
2022/04/26 13:09:14;;;;;;;;;;;;;;;16.97;37.49;101468.34;5048769;28;19920;-46
2022/04/26 13:11:39;;;;;;;;;;;;;;;17.03;37.39;101467.03;5048933;28;20364;-46
2022/04/26 13:14:04;;;;;;;;;;;;;;;17.10;37.24;101467.44;5049720;28;20355;-47
2022/04/26 13:16:30;;;;;;;;;;;;;;;17.09;37.10;101463.06;5048276;28;20363;-52
2022/04/26 13:18:55;;;;;;;;;;;;;;;17.10;36.73;101462.94;5047196;28;20083;-53
2022/04/26 13:21:20;;;;;;;;;;;;;;;17.07;36.75;101463.19;5048468;28;19927;-55
2022/04/26 13:23:45;;;;;;;;;;;;;;;17.11;36.56;101459.31;5049678;28;19913;-49
2022/04/26 13:26:11;;;;;;;;;;;;;;;17.22;36.40;101458.53;5046316;28;20368;-52
2022/04/26 13:28:36;;;;;;;;;;;;;;;17.34;35.98;101465.59;5048604;28;19909;-48
2022/04/26 13:31:01;;;;;;;;;;;;;;;17.43;36.01;101464.03;5041584;28;19928;-46
2022/04/26 13:33:27;;;;;;;;;;;;;;;17.42;36.06;101467.66;5042309;28;19924;-48
2022/04/26 13:35:56;;;;;;;;;;;;;;;17.45;36.09;101466.59;5045372;28;19956;-50
2022/04/26 13:38:21;;;;;;;;;;;;;;;17.52;36.12;101465.16;5044710;28;20295;-45
2022/04/26 13:40:48;;;;;;;;;;;;;;;17.55;35.75;101466.72;5045461;28;20379;-47
2022/04/26 13:43:14;;;;;;;;;;;;;;;17.54;34.92;101465.06;5046683;28;19943;-45
2022/04/26 13:45:39;;;;;;;;;;;;;;;17.54;35.71;101457.91;5045871;28;19912;-50
2022/04/26 13:48:08;;;;;;;;;;;;;;;17.51;34.57;101461.66;5047156;28;19924;-55
2022/04/26 13:50:35;;;;;;;;;;;;;;;17.47;34.70;101459.34;5045267;28;19920;-52
2022/04/26 13:53:00;;;;;;;;;;;;;;;17.49;34.66;101457.41;5043269;28;20016;-46
2022/04/26 13:55:26;;;;;;;;;;;;;;;17.54;34.71;101454.41;5043771;28;20015;-52
2022/04/26 13:57:52;;;;;;;;;;;;;;;17.64;34.91;101461.56;5046612;28;19920;-46
2022/04/26 14:00:18;;;;;;;;;;;;;;;17.76;34.77;101454.44;5045622;28;20030;-50
2022/04/26 14:02:46;;;;;;;;;;;;;;;17.82;34.15;101455.78;5045146;28;19917;-51
2022/04/26 14:05:12;;;;;;;;;;;;;;;17.83;34.43;101454.81;5047029;28;19922;-49
2022/04/26 14:07:37;;;;;;;;;;;;;;;17.83;33.39;101454.81;5049361;28;20016;-50
2022/04/26 14:10:03;;;;;;;;;;;;;;;17.82;32.92;101453.13;5046266;28;19925;-53
2022/04/26 14:12:28;;;;;;;;;;;;;;;17.84;32.85;101448.53;5041094;28;19916;-51
2022/04/26 14:23:06;;;;;;;;;;;;;;;18.72;33.19;101454.97;5047650;28;19955;-53
2022/04/26 14:25:31;;;;;;;;;;;;;;;18.92;33.05;101438.28;5048713;28;20291;-52
2022/04/26 14:27:56;;;;;;;;;;;;;;;19.10;32.55;101444.81;5048206;28;19924;-49
2022/04/26 14:30:22;;;;;;;;;;;;;;;19.35;32.90;101445.41;5047318;28;19924;-52
2022/04/26 14:32:48;;;;;;;;;;;;;;;19.64;32.41;101442.97;5047984;28;19917;-49
2022/04/26 14:35:14;;;;;;;;;;;;;;;20.02;32.29;101440.66;5048440;28;19928;-52
2022/04/26 14:37:41;;;;;;;;;;;;;;;20.39;31.09;101445.44;5048604;28;19917;-46
2022/04/26 14:40:08;;;;;;;;;;;;;;;20.60;31.55;101449.84;5050090;28;19925;-51
2022/04/26 14:42:33;;;;;;;;;;;;;;;20.84;28.72;101443.28;5049724;28;19913;-49
2022/04/26 14:44:59;;;;;;;;;;;;;;;21.04;29.70;101446.00;5049042;28;20007;-49
2022/04/26 14:47:27;;;;;;;;;;;;;;;21.26;28.59;101445.69;5046140;28;20242;-48
2022/04/26 14:49:54;;;;;;;;;;;;;;;21.51;28.54;101440.75;5047926;28;19913;-48
2022/04/26 14:52:21;;;;;;;;;;;;;;;21.84;28.42;101433.25;5048471;28;19970;-50
2022/04/26 14:54:49;;;;;;;;;;;;;;;22.15;27.52;101435.66;5049476;28;19927;-44
2022/04/26 14:57:17;;;;;;;;;;;;;;;22.40;28.25;101427.91;5046119;28;19982;-46
2022/04/26 14:59:46;;;;;;;;;;;;;;;22.60;28.20;101433.19;5046687;28;19922;-50
2022/04/26 15:02:18;;;;;;;;;;;;;;;22.71;27.20;101435.66;5047455;28;20296;-50
2022/04/26 15:04:47;;;;;;;;;;;;;;;22.33;26.14;101440.19;5040915;28;19931;-50
2022/04/26 15:07:14;;;;;;;;;;;;;;;22.00;27.81;101437.97;5037503;28;19920;-45
2022/04/26 15:09:52;;;;;;;;;;;;;;;21.86;27.67;101444.63;5033687;28;20356;-48
2022/04/26 15:17:50;;;;;;;;;;;;;;;21.97;26.48;101445.47;5038867;28;19924;-53
2022/04/26 15:20:17;;;;;;;;;;;;;;;21.84;25.75;101430.56;5041884;28;19921;-45
2022/04/26 15:22:42;;;;;;;;;;;;;;;21.74;27.11;101437.75;5045518;28;19921;-49
2022/04/26 15:25:09;;;;;;;;;;;;;;;21.61;27.17;101449.63;5040200;28;19921;-50
2022/04/26 15:27:36;;;;;;;;;;;;;;;21.53;27.72;101444.13;5037176;28;19921;-47
2022/04/26 15:30:02;;;;;;;;;;;;;;;21.54;28.33;101447.66;5043739;28;19917;-48
2022/04/26 15:32:28;;;;;;;;;;;;;;;21.61;28.15;101446.97;5042900;28;19913;-48
2022/04/26 15:34:53;;;;;;;;;;;;;;;21.75;28.56;101450.16;5035737;28;20281;-46
2022/04/26 15:37:19;;;;;;;;;;;;;;;21.85;28.44;101445.66;5042660;28;19950;-49
2022/04/26 15:39:47;;;;;;;;;;;;;;;21.93;28.58;101444.91;5036783;28;19925;-49
2022/04/26 15:42:13;;;;;;;;;;;;;;;21.97;28.04;101446.28;5037420;28;20027;-46
2022/04/26 15:44:38;;;;;;;;;;;;;;;21.99;28.42;101440.81;5037549;28;19920;-49
2022/04/26 15:47:03;;;;;;;;;;;;;;;21.87;28.48;101446.31;5038867;28;20344;-48
2022/04/26 15:49:29;;;;;;;;;;;;;;;21.80;28.42;101453.25;5041559;28;20024;-46
2022/04/26 15:51:56;;;;;;;;;;;;;;;21.78;28.47;101457.91;5043205;28;20575;-48
2022/04/26 15:54:21;;;;;;;;;;;;;;;21.74;28.47;101460.03;5041591;28;19924;-50
2022/04/26 15:56:47;;;;;;;;;;;;;;;21.71;28.50;101454.97;5042988;28;19913;-53
2022/04/26 15:59:12;;;;;;;;;;;;;;;21.70;28.96;101449.78;5035645;28;19996;-49
2022/04/26 16:01:41;;;;;;;;;;;;;;;21.74;28.99;101457.38;5041295;28;19960;-51
2022/04/26 16:04:10;;;;;;;;;;;;;;;21.77;28.80;101457.09;5041657;28;20391;-46
2022/04/26 16:06:37;;;;;;;;;;;;;;;21.75;28.89;101456.38;5043278;28;20363;-46
2022/04/26 16:22:43;;;;;;;;;;;;;;;19.87;29.32;101463.34;5044155;28;19979;-46
2022/04/26 16:25:08;;;;;;;;;;;;;;;19.54;29.82;101459.88;5038303;28;19916;-48
2022/04/26 16:27:33;;;;;;;;;;;;;;;19.29;29.82;101464.59;5044106;28;20333;-49
2022/04/26 16:30:01;;;;;;;;;;;;;;;19.06;30.13;101462.03;5046901;28;20295;-48
2022/04/26 16:32:29;;;;;;;;;;;;;;;18.88;30.19;101465.22;5044378;28;20820;-52
2022/04/26 16:34:56;;;;;;;;;;;;;;;18.71;30.49;101463.06;5042895;28;19946;-51
2022/04/26 16:37:22;;;;;;;;;;;;;;;18.51;30.22;101464.69;5035754;28;19921;-49
2022/04/26 16:39:48;;;;;;;;;;;;;;;18.32;30.44;101470.63;5038559;28;19916;-49
2022/04/26 16:42:13;;;;;;;;;;;;;;;18.16;30.41;101465.66;5042181;28;19923;-46
2022/04/26 16:44:39;;;;;;;;;;;;;;;18.01;30.45;101473.03;5038938;28;19967;-51
2022/04/26 16:47:04;;;;;;;;;;;;;;;17.86;30.85;101473.22;5042242;28;19935;-50
2022/04/26 16:49:32;;;;;;;;;;;;;;;17.77;30.96;101476.63;5044714;28;20011;-49
2022/04/26 16:51:57;;;;;;;;;;;;;;;17.71;31.06;101482.41;5046946;28;19920;-47
2022/04/26 16:54:23;;;;;;;;;;;;;;;17.65;31.20;101476.56;5043178;28;19921;-49
2022/04/26 16:56:48;;;;;;;;;;;;;;;17.62;31.35;101478.63;5038899;28;19924;-49
2022/04/26 16:59:16;;;;;;;;;;;;;;;17.59;31.39;101482.38;5032765;28;20046;-50
2022/04/26 17:01:42;;;;;;;;;;;;;;;17.52;31.43;101481.13;5034569;28;19920;-52
2022/04/26 17:04:10;;;;;;;;;;;;;;;17.45;31.55;101487.88;5036582;28;19994;-48
2022/04/26 17:06:36;;;;;;;;;;;;;;;17.35;31.58;101491.22;5041629;28;20031;-49